createdAt,value
2017-10-21T03:46:15.758Z,12.27
2017-10-21T03:48:42.528Z,12.43
2017-10-21T03:51:09.312Z,12.63
2017-10-21T03:53:36.120Z,13.57
2017-10-21T03:56:02.926Z,14.50
2017-10-21T03:58:30.062Z,13.43
2017-10-21T04:00:56.894Z,14.63
2017-10-21T04:03:23.670Z,14.33
2017-10-21T04:05:50.728Z,14.20
2017-10-21T04:08:17.559Z,13.53
2017-10-21T04:10:44.407Z,14.17
2017-10-21T04:13:11.268Z,13.67
2017-10-21T04:15:38.127Z,12.60
2017-10-21T04:18:04.946Z,12.70
2017-10-21T04:20:31.786Z,13.73
2017-10-21T04:22:58.619Z,13.40
2017-10-21T04:25:25.480Z,12.93
2017-10-21T04:27:52.259Z,14.23
2017-10-21T04:30:19.117Z,14.57
2017-10-21T04:32:45.897Z,13.60
2017-10-21T04:35:12.706Z,12.30
2017-10-21T04:37:39.571Z,13.13
2017-10-21T04:40:06.423Z,13.80
2017-10-21T04:42:33.271Z,12.43
2017-10-21T04:45:00.131Z,12.80
2017-10-21T04:47:26.927Z,13.73
2017-10-21T04:49:53.755Z,13.47
2017-10-21T04:52:20.581Z,13.60
2017-10-21T04:54:47.379Z,12.50
2017-10-21T04:57:14.185Z,13.47
2017-10-21T04:59:40.999Z,13.67
2017-10-21T05:02:07.840Z,14.43
2017-10-21T05:04:34.644Z,13.57
2017-10-21T05:07:01.499Z,13.70
2017-10-21T05:09:28.331Z,12.57
2017-10-21T05:11:55.149Z,13.57
2017-10-21T05:14:22.019Z,13.57
2017-10-21T05:16:48.855Z,12.00
2017-10-21T05:19:15.629Z,10.83
2017-10-21T05:21:42.458Z,12.63
2017-10-21T05:24:09.275Z,11.67
2017-10-21T05:26:36.084Z,10.53
2017-10-21T05:29:02.926Z,11.20
2017-10-21T05:31:29.725Z,11.20
2017-10-21T05:33:56.519Z,12.87
2017-10-21T05:36:23.347Z,10.87
2017-10-21T05:38:50.134Z,12.73
2017-10-21T05:41:16.961Z,9.90
2017-10-21T05:43:43.774Z,11.50
2017-10-21T05:46:10.577Z,10.60
2017-10-21T05:48:37.364Z,11.70
2017-10-21T05:51:04.206Z,12.30
2017-10-21T05:53:30.961Z,11.47
2017-10-21T05:55:57.811Z,9.87
2017-10-21T05:58:24.683Z,10.50
2017-10-21T06:00:51.526Z,11.03
2017-10-21T06:03:18.433Z,10.90
2017-10-21T06:05:45.276Z,11.70
2017-10-21T06:08:12.099Z,11.13
2017-10-21T06:10:38.879Z,11.40
2017-10-21T06:13:05.722Z,11.83
2017-10-21T06:15:32.576Z,10.87
2017-10-21T06:17:59.453Z,11.20
2017-10-21T06:20:26.373Z,11.43
2017-10-21T06:22:53.196Z,10.00
2017-10-21T06:25:20.042Z,11.57
2017-10-21T06:27:46.889Z,10.63
2017-10-21T06:30:13.740Z,10.73
2017-10-21T06:32:40.580Z,10.80
2017-10-21T06:35:07.400Z,10.97
2017-10-21T06:37:34.188Z,10.57
2017-10-21T06:40:00.992Z,11.33
2017-10-21T06:42:27.840Z,10.23
2017-10-21T06:44:54.659Z,11.00
2017-10-21T06:47:21.492Z,11.00
2017-10-21T06:49:48.296Z,9.63
2017-10-21T06:52:15.097Z,12.07
2017-10-21T06:54:42.165Z,10.20
2017-10-21T06:57:09.030Z,11.97
2017-10-21T06:59:35.828Z,11.50
2017-10-21T07:02:02.687Z,11.93
2017-10-21T07:04:29.534Z,10.30
2017-10-21T07:06:56.372Z,11.53
2017-10-21T07:09:23.225Z,10.50
2017-10-21T07:11:50.087Z,11.17
2017-10-21T07:14:16.926Z,10.97
2017-10-21T07:16:43.708Z,11.60
2017-10-21T07:19:10.531Z,9.63
2017-10-21T07:21:38.886Z,10.53
2017-10-21T07:24:05.672Z,10.80
2017-10-21T07:26:32.514Z,10.43
2017-10-21T07:28:59.296Z,12.00
2017-10-21T07:31:26.356Z,10.97
2017-10-21T07:33:53.214Z,9.23
2017-10-21T07:36:20.406Z,9.60
2017-10-21T07:38:47.193Z,10.57
2017-10-21T07:41:14.016Z,9.23
2017-10-21T07:43:40.849Z,9.37
2017-10-21T07:46:07.629Z,8.27
2017-10-21T07:48:34.432Z,8.27
2017-10-21T07:51:01.228Z,8.57
2017-10-21T07:53:28.017Z,7.83
2017-10-21T07:55:55.187Z,8.33
2017-10-21T07:58:21.979Z,7.50
2017-10-21T08:00:48.755Z,7.13
2017-10-21T08:03:15.585Z,7.50
2017-10-21T08:05:42.374Z,7.80
2017-10-21T08:08:09.214Z,7.17
2017-10-21T08:10:36.047Z,6.97
2017-10-21T08:13:02.843Z,7.13
2017-10-21T08:15:29.642Z,7.47
2017-10-21T08:17:58.546Z,7.07
2017-10-21T08:20:25.447Z,8.57
2017-10-21T08:22:52.334Z,7.40
2017-10-21T08:25:19.183Z,7.57
2017-10-21T08:27:46.003Z,6.90
2017-10-21T08:30:12.822Z,7.40
2017-10-21T08:32:39.701Z,7.07
2017-10-21T08:35:06.488Z,6.83
2017-10-21T08:37:33.295Z,6.43
2017-10-21T08:40:00.235Z,5.23
2017-10-21T08:42:27.060Z,5.60
2017-10-21T08:44:53.883Z,5.77
2017-10-21T08:47:20.692Z,5.60
2017-10-21T08:49:47.469Z,6.60
2017-10-21T08:52:14.281Z,7.57
2017-10-21T08:54:41.335Z,5.00
2017-10-21T08:57:08.166Z,5.00
2017-10-21T08:59:34.958Z,5.73
2017-10-21T09:02:01.801Z,5.13
2017-10-21T09:04:28.638Z,5.40
2017-10-21T09:06:55.479Z,5.40
2017-10-21T09:09:22.387Z,5.17
2017-10-21T09:11:49.203Z,5.40
2017-10-21T09:14:16.007Z,5.97
2017-10-21T09:16:42.852Z,5.10
2017-10-21T09:19:09.695Z,5.83
2017-10-21T09:21:36.532Z,5.90
2017-10-21T09:24:03.388Z,6.50
2017-10-21T09:26:30.242Z,6.20
2017-10-21T09:28:57.066Z,5.10
2017-10-21T09:31:23.903Z,5.60
2017-10-21T09:33:50.753Z,5.87
2017-10-21T09:36:17.591Z,6.57
2017-10-21T09:38:44.439Z,5.70
2017-10-21T09:41:11.578Z,6.07
2017-10-21T09:43:38.423Z,5.50
2017-10-21T09:46:05.267Z,7.17
2017-10-21T09:48:32.108Z,6.30
2017-10-21T09:50:58.950Z,6.90
2017-10-21T09:53:25.783Z,6.50
2017-10-21T09:55:52.590Z,5.53
2017-10-21T09:58:19.377Z,6.30
2017-10-21T10:00:46.200Z,5.57
2017-10-21T10:03:13.071Z,5.60
2017-10-21T10:05:39.911Z,5.67
2017-10-21T10:08:06.754Z,6.83
2017-10-21T10:10:33.556Z,6.67
2017-10-21T10:13:00.333Z,6.57
2017-10-21T10:15:27.151Z,6.87
2017-10-21T10:17:53.917Z,6.17
2017-10-21T10:20:20.746Z,5.50
2017-10-21T10:22:47.581Z,6.33
2017-10-21T10:25:14.535Z,6.23
2017-10-21T10:27:41.329Z,6.60
2017-10-21T10:30:08.228Z,6.70
2017-10-21T10:32:35.068Z,6.60
2017-10-21T10:35:01.917Z,6.70
2017-10-21T10:37:28.856Z,5.33
2017-10-21T10:39:55.663Z,5.67
2017-10-21T10:42:22.451Z,5.57
2017-10-21T10:44:49.381Z,6.00
2017-10-21T10:47:17.259Z,5.90
2017-10-21T10:49:44.091Z,6.27
2017-10-21T10:52:20.876Z,6.00
2017-10-21T10:54:47.712Z,6.07
2017-10-21T10:57:14.549Z,4.90
2017-10-21T10:59:41.457Z,5.30
2017-10-21T11:02:09.159Z,5.40
2017-10-21T11:04:35.972Z,5.10
2017-10-21T11:07:02.800Z,5.73
2017-10-21T11:09:29.974Z,6.43
2017-10-21T11:11:56.794Z,6.70
2017-10-21T11:14:23.769Z,5.50
2017-10-21T11:16:50.644Z,5.30
2017-10-21T11:19:17.495Z,6.63
2017-10-21T11:21:44.882Z,5.40
2017-10-21T11:24:11.695Z,4.93
2017-10-21T11:26:38.485Z,4.53
2017-10-21T11:29:06.466Z,5.60
2017-10-21T11:31:33.272Z,4.80
2017-10-21T11:34:00.105Z,4.10
2017-10-21T11:36:26.896Z,4.50
2017-10-21T11:38:53.731Z,4.80
2017-10-21T11:41:20.696Z,4.30
2017-10-21T11:43:48.328Z,4.20
2017-10-21T11:46:15.175Z,5.10
2017-10-21T11:48:42.025Z,5.23
2017-10-21T11:51:08.868Z,4.77
2017-10-21T11:53:35.709Z,5.60
2017-10-21T11:56:02.510Z,4.30
2017-10-21T11:58:29.337Z,5.30
2017-10-21T12:00:56.198Z,5.23
2017-10-21T12:03:23.041Z,4.23
2017-10-21T12:05:50.447Z,4.57
2017-10-21T12:08:17.279Z,5.50
2017-10-21T12:10:44.122Z,4.07
2017-10-21T12:13:10.994Z,4.63
2017-10-21T12:15:38.070Z,4.57
2017-10-21T12:18:04.913Z,4.30
2017-10-21T12:20:31.801Z,4.40
2017-10-21T12:22:58.643Z,4.63
2017-10-21T12:25:25.440Z,5.00
2017-10-21T12:27:52.274Z,4.57
2017-10-21T12:30:19.060Z,5.03
2017-10-21T12:32:45.888Z,4.67
2017-10-21T12:35:12.703Z,4.07
2017-10-21T12:37:39.473Z,5.50
2017-10-21T12:40:06.279Z,4.00
2017-10-21T12:42:33.096Z,4.53
2017-10-21T12:44:59.910Z,4.50
2017-10-21T12:47:26.740Z,4.10
2017-10-21T12:49:53.584Z,6.30
2017-10-21T12:52:20.401Z,4.40
2017-10-21T12:54:47.240Z,4.40
2017-10-21T12:57:14.083Z,4.63
2017-10-21T12:59:41.040Z,5.70
2017-10-21T13:02:07.860Z,5.47
2017-10-21T13:04:34.762Z,5.33
2017-10-21T13:07:01.607Z,5.13
2017-10-21T13:09:28.544Z,4.30
2017-10-21T13:11:55.412Z,4.47
2017-10-21T13:14:22.208Z,6.50
2017-10-21T13:16:49.023Z,4.90
2017-10-21T13:19:15.849Z,4.87
2017-10-21T13:21:42.636Z,4.40
2017-10-21T13:24:09.698Z,5.10
2017-10-21T13:26:36.583Z,5.13
2017-10-21T13:29:03.380Z,5.20
2017-10-21T13:31:30.315Z,4.30
2017-10-21T13:33:57.133Z,4.90
2017-10-21T13:36:23.909Z,4.17
2017-10-21T13:38:50.700Z,4.70
2017-10-21T13:41:17.509Z,4.80
2017-10-21T13:43:44.315Z,4.67
2017-10-21T13:46:11.095Z,5.00
2017-10-21T13:48:37.944Z,4.93
2017-10-21T13:51:04.763Z,5.63
2017-10-21T13:53:31.788Z,5.80
2017-10-21T13:55:58.607Z,5.70
2017-10-21T13:58:25.405Z,4.80
2017-10-21T14:00:52.520Z,5.27
2017-10-21T14:03:19.364Z,5.43
2017-10-21T14:05:46.430Z,4.97
2017-10-21T14:08:13.225Z,5.43
2017-10-21T14:10:40.015Z,6.20
2017-10-21T14:13:06.858Z,5.03
2017-10-21T14:15:33.779Z,5.17
2017-10-21T14:18:01.148Z,5.53
2017-10-21T14:20:28.019Z,4.53
2017-10-21T14:22:54.867Z,3.80
2017-10-21T14:25:21.727Z,3.30
2017-10-21T14:27:48.547Z,4.30
2017-10-21T14:30:15.347Z,3.40
2017-10-21T14:32:42.187Z,3.20
2017-10-21T14:35:08.947Z,3.83
2017-10-21T14:37:35.896Z,3.00
2017-10-21T14:40:02.849Z,4.17
2017-10-21T14:42:29.860Z,3.53
2017-10-21T14:44:56.660Z,2.90
2017-10-21T14:47:23.527Z,3.57
2017-10-21T14:49:50.648Z,3.40
2017-10-21T14:52:17.543Z,3.43
2017-10-21T14:54:44.404Z,3.30
2017-10-21T14:57:11.224Z,2.60
2017-10-21T14:59:38.051Z,3.03
2017-10-21T15:02:04.903Z,3.20
2017-10-21T15:04:31.686Z,3.97
2017-10-21T15:06:58.494Z,3.47
2017-10-21T15:09:25.401Z,6.13
2017-10-21T15:11:52.195Z,3.63
2017-10-21T15:14:18.999Z,3.77
2017-10-21T15:16:45.828Z,3.60
2017-10-21T15:19:13.738Z,3.37
2017-10-21T15:21:40.489Z,3.30
2017-10-21T15:24:07.332Z,3.77
2017-10-21T15:26:34.125Z,2.90
2017-10-21T15:29:00.939Z,3.70
2017-10-21T15:31:27.836Z,3.17
2017-10-21T15:33:54.645Z,3.43
2017-10-21T15:36:21.467Z,3.90
2017-10-21T15:38:48.302Z,3.80
2017-10-21T15:41:15.105Z,3.50
2017-10-21T15:43:41.926Z,3.80
2017-10-21T15:46:08.733Z,3.90
2017-10-21T15:48:35.534Z,4.63
2017-10-21T15:51:02.380Z,3.73
2017-10-21T15:53:29.272Z,4.63
2017-10-21T15:55:56.048Z,4.67
2017-10-21T15:58:22.923Z,4.77
2017-10-21T16:00:49.758Z,4.10
2017-10-21T16:03:16.583Z,4.10
2017-10-21T16:05:43.426Z,4.10
2017-10-21T16:08:10.262Z,3.50
2017-10-21T16:10:37.156Z,3.83
2017-10-21T16:13:03.947Z,3.87
2017-10-21T16:15:30.762Z,3.80
2017-10-21T16:17:57.574Z,3.53
2017-10-21T16:20:24.375Z,5.43
2017-10-21T16:22:51.193Z,3.50
2017-10-21T16:25:17.980Z,5.47
2017-10-21T16:27:44.759Z,3.60
2017-10-21T16:30:11.580Z,4.20
2017-10-21T16:32:38.371Z,4.10
2017-10-21T16:35:05.130Z,4.43
2017-10-21T16:37:31.990Z,5.07
2017-10-21T16:39:58.789Z,3.83
2017-10-21T16:42:25.933Z,4.53
2017-10-21T16:44:52.755Z,5.00
2017-10-21T16:47:19.532Z,4.30
2017-10-21T16:49:46.288Z,4.20
2017-10-21T16:52:13.104Z,4.10
2017-10-21T16:54:39.925Z,4.10
2017-10-21T16:57:06.706Z,5.03
2017-10-21T16:59:33.526Z,4.23
2017-10-21T17:02:00.324Z,4.10
2017-10-21T17:04:27.112Z,4.40
2017-10-21T17:06:53.989Z,4.60
2017-10-21T17:09:20.774Z,4.20
2017-10-21T17:11:47.580Z,4.97
2017-10-21T17:14:14.439Z,6.27
2017-10-21T17:16:41.208Z,5.10
2017-10-21T17:19:08.022Z,5.50
2017-10-21T17:21:34.852Z,5.50
2017-10-21T17:24:01.639Z,6.40
2017-10-21T17:26:28.815Z,4.70
2017-10-21T17:28:55.660Z,5.00
2017-10-21T17:31:22.431Z,6.43
2017-10-21T17:33:49.270Z,5.27
2017-10-21T17:36:16.078Z,5.17
2017-10-21T17:38:42.877Z,5.53
2017-10-21T17:41:09.708Z,6.37
2017-10-21T17:43:36.524Z,4.90
2017-10-21T17:46:03.335Z,5.67
2017-10-21T17:48:30.164Z,4.97
2017-10-21T17:50:57.040Z,5.97
2017-10-21T17:53:24.104Z,5.47
2017-10-21T17:55:50.933Z,5.80
2017-10-21T17:58:17.773Z,5.60
2017-10-21T18:00:44.567Z,6.30
2017-10-21T18:03:11.399Z,7.70
2017-10-21T18:05:38.248Z,6.17
2017-10-21T18:08:05.068Z,6.73
2017-10-21T18:10:32.082Z,6.43
2017-10-21T18:12:58.882Z,7.53
2017-10-21T18:15:26.259Z,7.03
2017-10-21T18:17:53.261Z,6.43
2017-10-21T18:20:20.147Z,6.50
2017-10-21T18:22:47.745Z,6.87
2017-10-21T18:25:14.567Z,6.30
2017-10-21T18:27:41.425Z,5.97
2017-10-21T18:30:08.264Z,5.57
2017-10-21T18:32:35.062Z,6.13
2017-10-21T18:35:01.905Z,7.00
2017-10-21T18:37:28.737Z,7.23
2017-10-21T18:39:55.531Z,6.20
2017-10-21T18:42:22.397Z,6.97
2017-10-21T18:44:49.199Z,6.90
2017-10-21T18:47:16.074Z,6.87
2017-10-21T18:49:42.906Z,6.00
2017-10-21T18:52:10.094Z,8.10
2017-10-21T18:54:36.982Z,7.03
2017-10-21T18:57:03.958Z,8.10
2017-10-21T18:59:30.806Z,8.37
2017-10-21T19:01:57.779Z,8.23
2017-10-21T19:04:24.615Z,7.87
2017-10-21T19:06:52.344Z,8.57
2017-10-21T19:09:19.217Z,8.70
2017-10-21T19:11:46.219Z,8.93
2017-10-21T19:14:13.053Z,8.67
2017-10-21T19:16:39.856Z,9.07
2017-10-21T19:19:06.692Z,7.80
2017-10-21T19:21:33.494Z,8.80
2017-10-21T19:24:00.320Z,9.43
2017-10-21T19:26:27.146Z,10.13
2017-10-21T19:28:53.940Z,11.07
2017-10-21T19:31:21.066Z,10.57
2017-10-21T19:33:48.155Z,11.40
2017-10-21T19:36:14.965Z,11.73
2017-10-21T19:38:41.783Z,11.90
2017-10-21T19:41:08.686Z,12.53
2017-10-21T19:43:35.535Z,11.13
2017-10-21T19:46:02.338Z,13.43
2017-10-21T19:48:29.188Z,12.40
2017-10-21T19:50:55.987Z,11.83
2017-10-21T19:53:22.802Z,13.00
2017-10-21T19:55:49.628Z,12.77
2017-10-21T19:58:16.430Z,13.50
2017-10-21T20:00:43.237Z,12.57
2017-10-21T20:03:10.107Z,14.17
2017-10-21T20:05:36.980Z,12.40
2017-10-21T20:08:03.818Z,13.57
2017-10-21T20:10:30.682Z,14.50
2017-10-21T20:12:57.457Z,15.37
2017-10-21T20:15:24.251Z,14.13
2017-10-21T20:17:51.064Z,15.17
2017-10-21T20:20:17.932Z,15.47
2017-10-21T20:22:44.743Z,13.70
2017-10-21T20:25:11.552Z,14.63
2017-10-21T20:27:38.613Z,15.50
2017-10-21T20:30:05.439Z,16.00
2017-10-21T20:32:32.350Z,14.83
2017-10-21T20:34:59.110Z,18.33
2017-10-21T20:37:25.892Z,18.43
2017-10-21T20:39:52.966Z,16.50
2017-10-21T20:42:19.756Z,15.33
2017-10-21T20:44:46.564Z,15.93
2017-10-21T20:47:13.417Z,17.10
2017-10-21T20:49:40.469Z,15.50
2017-10-21T20:52:07.340Z,16.03
2017-10-21T20:54:34.201Z,17.10
2017-10-21T20:57:01.017Z,17.47
2017-10-21T20:59:27.834Z,16.30
2017-10-21T21:01:54.675Z,18.17
2017-10-21T21:04:21.521Z,17.50
2017-10-21T21:06:48.312Z,17.20
2017-10-21T21:09:15.125Z,15.87
2017-10-21T21:11:41.900Z,18.73
2017-10-21T21:14:08.669Z,18.30
2017-10-21T21:16:35.531Z,17.27
2017-10-21T21:19:02.747Z,17.77
2017-10-21T21:21:29.567Z,18.03
2017-10-21T21:23:56.406Z,15.57
2017-10-21T21:26:23.255Z,17.87
2017-10-21T21:28:50.048Z,19.43
2017-10-21T21:31:16.874Z,17.90
2017-10-21T21:33:43.680Z,19.17
2017-10-21T21:36:10.522Z,18.83
2017-10-21T21:38:37.417Z,18.90
2017-10-21T21:41:04.263Z,17.20
2017-10-21T21:43:31.046Z,20.37
2017-10-21T21:45:57.929Z,18.23
2017-10-21T21:48:24.737Z,17.77
2017-10-21T21:50:51.576Z,17.33
2017-10-21T21:53:18.418Z,19.87
2017-10-21T21:55:45.261Z,20.13
2017-10-21T21:58:12.107Z,20.27
2017-10-21T22:00:38.947Z,18.27
2017-10-21T22:03:05.768Z,19.37
2017-10-21T22:05:32.579Z,18.97
2017-10-21T22:07:59.429Z,19.20
2017-10-21T22:10:26.223Z,19.17
